Time;durP1;ratioP1;P1;durP2;ratioP2;P2;SDS_P1;SDS_P2;PMS_P1;PMS_P2;Temp;Humidity;BMP_temperature;BMP_pressure;BME280_temperature;BME280_humidity;BME280_pressure;Samples;Min_cycle;Max_cycle;Signal;HPM_P1;HPM_P2
2023/07/22 00:00:40;;;;;;;8.95;4.50;;;17.10;97.50;;;;;;5050716;28;20029;-69
2023/07/22 00:03:06;;;;;;;6.90;4.55;;;17.10;97.60;;;;;;5050774;28;20041;-70
2023/07/22 00:05:32;;;;;;;9.07;5.07;;;17.00;97.60;;;;;;5051298;28;20411;-69
2023/07/22 00:07:57;;;;;;;8.32;5.03;;;16.90;97.80;;;;;;5050618;28;20397;-69
2023/07/22 00:10:23;;;;;;;11.68;5.35;;;16.90;97.70;;;;;;5050538;28;20029;-70
2023/07/22 00:12:49;;;;;;;9.75;4.57;;;17.00;97.60;;;;;;5050311;28;20131;-69
2023/07/22 00:15:14;;;;;;;11.77;5.28;;;16.90;97.70;;;;;;5049218;28;20025;-68
2023/07/22 00:17:41;;;;;;;8.95;4.63;;;16.90;97.70;;;;;;5050756;28;20347;-69
2023/07/22 00:20:10;;;;;;;21.95;12.23;;;16.90;97.60;;;;;;5050390;28;20116;-70
2023/07/22 00:22:40;;;;;;;16.67;9.48;;;16.90;97.60;;;;;;5049213;28;20029;-68
2023/07/22 00:25:10;;;;;;;11.23;6.00;;;16.90;97.60;;;;;;5050285;28;20067;-69
2023/07/22 00:27:39;;;;;;;9.10;5.55;;;16.80;97.70;;;;;;5050268;28;20044;-70
2023/07/22 00:30:08;;;;;;;8.35;5.78;;;16.80;97.80;;;;;;5050125;28;20298;-68
2023/07/22 00:32:36;;;;;;;9.82;5.50;;;16.70;98.00;;;;;;5050883;28;20429;-69
2023/07/22 00:35:05;;;;;;;18.50;10.98;;;16.70;97.90;;;;;;5049877;28;20162;-69
2023/07/22 00:37:31;;;;;;;25.73;15.48;;;16.80;97.70;;;;;;5048944;28;20044;-69
2023/07/22 00:39:56;;;;;;;11.32;5.22;;;16.80;97.80;;;;;;5050537;28;20021;-69
2023/07/22 00:42:22;;;;;;;9.23;5.28;;;16.70;97.80;;;;;;5050283;28;20415;-69
2023/07/22 00:44:47;;;;;;;11.00;4.97;;;16.80;97.80;;;;;;5050021;28;20040;-69
2023/07/22 00:47:14;;;;;;;9.95;5.07;;;16.70;97.80;;;;;;5050637;28;20248;-69
2023/07/22 00:49:40;;;;;;;11.25;5.13;;;16.70;97.80;;;;;;5048948;28;20037;-69
2023/07/22 00:52:06;;;;;;;7.70;4.72;;;16.70;97.80;;;;;;5049992;28;20190;-68
2023/07/22 00:54:32;;;;;;;8.95;4.55;;;16.60;97.90;;;;;;5048897;28;20166;-69
2023/07/22 00:56:58;;;;;;;8.70;4.88;;;16.60;97.80;;;;;;5049802;28;20040;-69
2023/07/22 00:59:25;;;;;;;8.98;5.35;;;16.70;97.80;;;;;;5049415;28;20024;-70
2023/07/22 01:01:50;;;;;;;10.60;4.63;;;16.70;97.80;;;;;;5050185;28;20037;-69
2023/07/22 01:04:19;;;;;;;7.70;4.78;;;16.70;97.80;;;;;;5049942;28;20033;-69
2023/07/22 01:06:46;;;;;;;7.25;4.55;;;16.60;97.90;;;;;;5049782;28;20522;-69
2023/07/22 01:09:13;;;;;;;10.30;5.38;;;16.70;97.90;;;;;;5049729;28;20037;-69
2023/07/22 01:11:39;;;;;;;6.07;3.83;;;16.70;97.70;;;;;;5050427;28;20120;-70
2023/07/22 01:14:04;;;;;;;9.43;4.65;;;16.70;97.90;;;;;;5048495;28;20119;-69
2023/07/22 01:16:30;;;;;;;7.28;4.68;;;16.70;98.00;;;;;;5049542;28;20054;-69
2023/07/22 01:18:57;;;;;;;7.07;4.32;;;16.60;98.00;;;;;;5049942;28;20033;-68
2023/07/22 01:21:26;;;;;;;10.02;4.85;;;16.70;98.00;;;;;;5049744;28;20025;-69
2023/07/22 01:23:53;;;;;;;9.43;5.03;;;16.70;98.00;;;;;;5049534;28;20056;-69
2023/07/22 01:26:19;;;;;;;9.93;5.10;;;16.70;98.00;;;;;;5049986;28;20029;-69
2023/07/22 01:28:45;;;;;;;12.35;5.30;;;16.70;97.90;;;;;;5049905;28;20032;-69
2023/07/22 01:31:11;;;;;;;14.70;5.68;;;16.60;98.00;;;;;;5049429;28;20417;-70
2023/07/22 01:33:37;;;;;;;7.78;5.05;;;16.60;98.30;;;;;;5049401;28;20533;-70
2023/07/22 01:36:03;;;;;;;11.30;5.85;;;16.50;98.20;;;;;;5070433;28;20040;-69
2023/07/22 01:38:29;;;;;;;11.30;4.68;;;16.60;98.20;;;;;;5090144;28;20035;-69
2023/07/22 01:40:57;;;;;;;12.55;5.72;;;16.60;98.30;;;;;;5089971;28;20056;-68
2023/07/22 01:43:22;;;;;;;10.30;5.13;;;16.50;98.30;;;;;;5089863;28;20025;-68
2023/07/22 01:45:48;;;;;;;16.80;6.13;;;16.50;98.50;;;;;;5089682;28;20093;-69
2023/07/22 01:48:13;;;;;;;11.82;5.90;;;16.50;98.30;;;;;;5092959;28;20042;-69
2023/07/22 01:50:39;;;;;;;14.30;5.32;;;16.40;98.40;;;;;;5092781;28;20346;-69
2023/07/22 01:53:05;;;;;;;8.27;4.78;;;16.50;98.30;;;;;;5092380;28;20048;-68
2023/07/22 01:55:32;;;;;;;10.07;4.70;;;16.50;98.20;;;;;;5092227;28;20055;-68
2023/07/22 01:57:58;;;;;;;9.75;5.28;;;16.50;98.30;;;;;;5093649;28;20323;-69
2023/07/22 02:00:24;;;;;;;12.68;5.50;;;16.50;98.40;;;;;;5093803;28;20093;-69
2023/07/22 02:02:49;;;;;;;10.93;4.72;;;16.40;98.40;;;;;;5092022;28;20032;-69
2023/07/22 02:05:15;;;;;;;8.82;4.25;;;16.30;98.50;;;;;;5093669;28;20032;-69
2023/07/22 02:07:40;;;;;;;12.30;4.68;;;16.30;98.60;;;;;;5093198;28;20036;-68
2023/07/22 02:10:06;;;;;;;10.48;4.38;;;16.30;98.40;;;;;;5093241;28;20444;-69
2023/07/22 02:12:32;;;;;;;10.95;5.00;;;16.40;98.40;;;;;;5093188;28;20154;-69
2023/07/22 02:14:58;;;;;;;8.75;4.43;;;16.40;98.40;;;;;;5092875;28;20142;-68
2023/07/22 02:17:23;;;;;;;8.93;4.50;;;16.40;98.50;;;;;;5092397;28;20388;-69
2023/07/22 02:19:50;;;;;;;13.98;5.88;;;16.30;98.30;;;;;;5092880;28;20108;-69
2023/07/22 02:22:15;;;;;;;10.13;4.78;;;16.30;98.20;;;;;;5092847;28;20525;-69
2023/07/22 02:24:41;;;;;;;9.73;5.30;;;16.40;98.30;;;;;;5092531;28;20093;-69
2023/07/22 02:27:08;;;;;;;7.38;4.10;;;16.30;98.40;;;;;;5092632;28;20032;-70
2023/07/22 02:29:34;;;;;;;8.63;4.82;;;16.20;98.60;;;;;;5093276;28;20082;-70
2023/07/22 02:32:01;;;;;;;11.07;5.07;;;16.20;98.50;;;;;;5092570;28;20135;-69
2023/07/22 02:34:26;;;;;;;8.88;4.63;;;16.20;98.60;;;;;;5091563;28;20036;-69
2023/07/22 02:36:52;;;;;;;10.38;4.75;;;16.20;98.60;;;;;;5092770;28;20036;-69
2023/07/22 02:39:18;;;;;;;13.48;4.90;;;16.10;98.60;;;;;;5092749;28;20123;-69
2023/07/22 02:41:44;;;;;;;9.25;4.55;;;16.20;98.50;;;;;;5093184;28;20042;-69
2023/07/22 02:44:10;;;;;;;10.43;4.72;;;16.20;98.50;;;;;;5092443;28;20035;-69
2023/07/22 02:46:35;;;;;;;8.05;4.30;;;16.20;98.40;;;;;;5091280;28;20126;-68
2023/07/22 02:49:01;;;;;;;7.20;4.55;;;16.20;98.40;;;;;;5091226;28;20048;-70
2023/07/22 02:51:26;;;;;;;8.13;4.25;;;16.20;98.40;;;;;;5092314;28;20028;-69
2023/07/22 02:53:52;;;;;;;11.35;5.18;;;16.10;98.40;;;;;;5092531;28;20039;-69
2023/07/22 02:56:18;;;;;;;10.80;5.40;;;16.20;98.40;;;;;;5092744;28;20078;-69
2023/07/22 02:58:44;;;;;;;10.43;4.93;;;16.20;98.40;;;;;;5091720;28;20387;-70
2023/07/22 03:01:10;;;;;;;6.93;4.30;;;16.10;98.30;;;;;;5092320;28;20024;-68
2023/07/22 03:03:36;;;;;;;11.10;4.90;;;16.10;98.50;;;;;;5092078;28;20043;-69
2023/07/22 03:06:03;;;;;;;9.23;4.25;;;16.10;98.40;;;;;;5092162;28;20020;-70
2023/07/22 03:08:30;;;;;;;15.10;4.67;;;16.10;98.40;;;;;;5092633;28;20031;-69
2023/07/22 03:10:56;;;;;;;15.43;5.53;;;16.20;98.20;;;;;;5091881;28;20105;-69
2023/07/22 03:13:22;;;;;;;11.30;4.97;;;16.20;98.10;;;;;;5091953;28;20028;-69
2023/07/22 03:15:47;;;;;;;12.63;5.18;;;16.20;98.10;;;;;;5091665;28;20147;-70
2023/07/22 03:18:13;;;;;;;10.27;4.97;;;16.10;98.20;;;;;;5091978;28;20036;-69
2023/07/22 03:20:39;;;;;;;12.63;5.47;;;16.10;98.20;;;;;;5090882;28;20157;-70
2023/07/22 03:23:06;;;;;;;10.95;4.53;;;16.00;98.20;;;;;;5090310;28;20409;-69
2023/07/22 03:25:32;;;;;;;11.32;5.25;;;16.00;98.30;;;;;;5091463;28;20039;-69
2023/07/22 03:28:06;;;;;;;11.88;4.93;;;16.10;98.20;;;;;;5091609;28;20527;-69
2023/07/22 03:30:33;;;;;;;10.85;4.78;;;16.10;98.20;;;;;;5091615;28;20097;-69
2023/07/22 03:32:59;;;;;;;10.80;5.20;;;16.10;98.20;;;;;;5090067;28;20047;-68
2023/07/22 03:35:25;;;;;;;10.30;4.63;;;16.10;98.10;;;;;;5091790;28;20020;-69
2023/07/22 03:37:50;;;;;;;15.40;5.47;;;16.10;98.10;;;;;;5091264;28;20084;-69
2023/07/22 03:40:19;;;;;;;13.32;5.82;;;16.10;98.10;;;;;;5091848;28;20052;-70
2023/07/22 03:42:50;;;;;;;11.68;5.45;;;16.20;98.10;;;;;;5091283;28;20050;-69
2023/07/22 03:45:17;;;;;;;13.70;5.80;;;16.10;98.00;;;;;;5089809;28;20036;-70
2023/07/22 03:47:45;;;;;;;11.80;4.72;;;16.10;98.00;;;;;;5092106;28;20031;-70
2023/07/22 03:50:10;;;;;;;;;;;16.10;97.90;;;;;;5091941;28;20029;-71
2023/07/22 03:52:36;;;;;;;12.25;5.18;;;16.10;98.00;;;;;;5091305;28;20007;-69
2023/07/22 03:55:02;;;;;;;14.05;4.93;;;16.10;97.90;;;;;;5091007;28;20055;-69
2023/07/22 03:57:28;;;;;;;10.70;5.05;;;16.10;97.90;;;;;;5090897;28;20473;-69
2023/07/22 03:59:55;;;;;;;13.73;5.40;;;16.10;97.80;;;;;;5089827;28;20028;-69
2023/07/22 04:02:20;;;;;;;15.02;5.85;;;16.10;97.80;;;;;;5091362;28;20031;-70
2023/07/22 04:04:46;;;;;;;14.27;5.53;;;16.10;97.80;;;;;;5091042;28;20032;-68
2023/07/22 04:07:12;;;;;;;11.05;4.82;;;16.10;97.90;;;;;;5090849;28;20028;-69
2023/07/22 04:09:37;;;;;;;11.00;4.75;;;16.10;97.80;;;;;;5089844;28;20024;-69
2023/07/22 04:12:03;;;;;;;10.48;5.13;;;16.20;97.90;;;;;;5090340;28;20039;-67
2023/07/22 04:14:29;;;;;;;15.30;5.45;;;16.10;97.80;;;;;;5090942;28;20063;-69
2023/07/22 04:16:55;;;;;;;16.95;5.50;;;16.20;97.80;;;;;;5089724;28;20170;-68
2023/07/22 04:19:21;;;;;;;14.27;5.15;;;16.20;97.90;;;;;;5090627;28;20028;-69
2023/07/22 04:21:46;;;;;;;10.10;5.53;;;16.20;98.00;;;;;;5090625;28;20063;-68
2023/07/22 04:24:12;;;;;;;11.77;5.07;;;16.20;98.10;;;;;;5090384;28;20367;-68
2023/07/22 04:26:38;;;;;;;11.25;5.38;;;16.20;97.90;;;;;;5090980;28;20124;-68
2023/07/22 04:29:03;;;;;;;11.65;5.90;;;16.20;97.90;;;;;;5090360;28;20040;-67
2023/07/22 04:31:29;;;;;;;12.68;5.43;;;16.30;97.80;;;;;;5090246;28;20044;-69
2023/07/22 04:33:54;;;;;;;13.00;5.35;;;16.30;97.80;;;;;;5090380;28;20031;-69
2023/07/22 04:36:20;;;;;;;15.00;5.88;;;16.30;97.80;;;;;;5090275;28;20032;-68
2023/07/22 04:38:46;;;;;;;13.45;5.72;;;16.30;97.80;;;;;;5090673;28;20032;-69
2023/07/22 04:41:11;;;;;;;12.07;5.68;;;16.30;97.70;;;;;;5090445;28;20400;-68
2023/07/22 04:43:39;;;;;;;13.55;5.50;;;16.30;97.90;;;;;;5090020;28;20029;-69
2023/07/22 04:46:05;;;;;;;10.23;5.10;;;16.30;97.80;;;;;;5090077;28;20140;-68
2023/07/22 04:48:31;;;;;;;11.68;5.97;;;16.30;97.80;;;;;;5088889;28;20418;-68
2023/07/22 04:50:57;;;;;;;11.63;5.07;;;16.30;97.80;;;;;;5090105;28;20445;-68
2023/07/22 04:53:22;;;;;;;16.45;5.32;;;16.30;97.90;;;;;;5090482;28;20097;-68
2023/07/22 04:55:48;;;;;;;12.00;5.05;;;16.40;97.90;;;;;;5089980;28;20036;-68
2023/07/22 04:58:13;;;;;;;18.30;5.78;;;16.30;97.80;;;;;;5089947;28;20051;-69
2023/07/22 05:00:39;;;;;;;13.68;4.95;;;16.40;97.70;;;;;;5090014;28;20050;-68
2023/07/22 05:03:05;;;;;;;11.95;5.63;;;16.40;97.80;;;;;;5089919;28;20407;-68
2023/07/22 05:05:32;;;;;;;13.18;5.80;;;16.50;97.80;;;;;;5090309;28;20103;-68
2023/07/22 05:07:58;;;;;;;13.35;5.95;;;16.50;97.70;;;;;;5088925;28;20028;-68
2023/07/22 05:10:23;;;;;;;11.30;5.53;;;16.40;97.80;;;;;;5089753;28;20040;-67
2023/07/22 05:12:49;;;;;;;15.50;6.90;;;16.50;97.80;;;;;;5089775;28;20067;-68
2023/07/22 05:15:15;;;;;;;14.20;6.15;;;16.40;97.70;;;;;;5089784;28;20044;-67
2023/07/22 05:17:41;;;;;;;12.98;5.65;;;16.50;97.90;;;;;;5090624;28;20091;-68
2023/07/22 05:20:10;;;;;;;10.88;5.28;;;16.50;97.70;;;;;;5090336;28;20024;-69
2023/07/22 05:22:37;;;;;;;14.77;5.72;;;16.50;97.80;;;;;;5091197;28;20032;-68
2023/07/22 05:25:04;;;;;;;12.45;5.40;;;16.60;97.70;;;;;;5094014;28;20028;-69
2023/07/22 05:27:30;;;;;;;11.32;4.85;;;16.60;97.80;;;;;;5093697;28;20166;-69
2023/07/22 05:29:55;;;;;;;9.18;5.22;;;16.60;97.70;;;;;;5092685;28;20052;-68
2023/07/22 05:32:21;;;;;;;11.23;5.45;;;16.80;97.60;;;;;;5094033;28;20059;-68
2023/07/22 05:34:47;;;;;;;12.77;5.90;;;16.80;97.50;;;;;;5094011;28;20044;-68
2023/07/22 05:37:12;;;;;;;9.23;5.35;;;16.60;97.70;;;;;;5093803;28;20024;-68
2023/07/22 05:39:38;;;;;;;12.15;5.60;;;16.70;97.70;;;;;;5093886;28;20056;-67
2023/07/22 05:42:04;;;;;;;12.63;6.80;;;16.60;97.80;;;;;;5093669;28;20101;-68
2023/07/22 05:44:30;;;;;;;11.45;5.35;;;16.70;97.70;;;;;;5094052;28;20071;-68
2023/07/22 05:46:56;;;;;;;15.40;6.15;;;16.60;97.80;;;;;;5092541;28;20032;-68
2023/07/22 05:49:21;;;;;;;15.45;6.38;;;16.60;97.90;;;;;;5093853;28;20035;-68
2023/07/22 05:51:47;;;;;;;13.10;5.80;;;16.60;97.90;;;;;;5093364;28;20032;-68
2023/07/22 05:54:13;;;;;;;11.23;6.00;;;16.70;97.80;;;;;;5093261;28;20036;-68
2023/07/22 05:56:38;;;;;;;11.57;5.85;;;16.80;97.90;;;;;;5093571;28;20331;-68
2023/07/22 05:59:04;;;;;;;12.48;5.95;;;16.80;97.70;;;;;;5091780;28;20228;-68
2023/07/22 06:01:29;;;;;;;10.10;5.47;;;16.70;98.10;;;;;;5093083;28;20036;-68
2023/07/22 06:03:55;;;;;;;12.15;6.15;;;16.80;97.90;;;;;;5093439;28;20058;-68
2023/07/22 06:06:21;;;;;;;11.13;5.75;;;16.80;98.10;;;;;;5091874;28;20442;-68
2023/07/22 06:08:46;;;;;;;9.90;5.32;;;16.80;97.70;;;;;;5093640;28;20110;-69
2023/07/22 06:11:12;;;;;;;9.00;5.43;;;17.00;97.70;;;;;;5093044;28;20119;-68
2023/07/22 06:13:38;;;;;;;11.88;5.40;;;16.90;97.60;;;;;;5093249;28;20032;-67
2023/07/22 06:16:04;;;;;;;16.80;6.47;;;16.80;98.00;;;;;;5092982;28;20093;-68
2023/07/22 06:18:29;;;;;;;11.30;6.07;;;16.90;97.70;;;;;;5092051;28;20028;-68
2023/07/22 06:20:55;;;;;;;11.75;5.93;;;17.00;97.60;;;;;;5092972;28;20025;-68
2023/07/22 06:23:20;;;;;;;16.48;6.00;;;17.00;97.50;;;;;;5093046;28;20035;-69
2023/07/22 06:25:46;;;;;;;10.80;5.72;;;17.10;97.50;;;;;;5092769;28;20037;-68
2023/07/22 06:28:12;;;;;;;10.43;5.65;;;17.00;97.50;;;;;;5092695;28;20067;-67
2023/07/22 06:30:37;;;;;;;11.60;5.80;;;17.10;97.60;;;;;;5092684;28;20047;-69
2023/07/22 06:33:03;;;;;;;11.35;5.60;;;17.00;97.60;;;;;;5092033;28;20105;-68
2023/07/22 06:35:28;;;;;;;11.40;5.72;;;17.10;97.50;;;;;;5092992;28;20031;-68
2023/07/22 06:37:54;;;;;;;15.30;5.80;;;17.30;97.40;;;;;;5092667;28;20031;-69
2023/07/22 06:40:20;;;;;;;11.52;5.65;;;17.40;97.30;;;;;;5092491;28;20039;-69
2023/07/22 06:42:45;;;;;;;14.48;5.68;;;17.50;97.20;;;;;;5092668;28;20028;-68
2023/07/22 06:45:11;;;;;;;10.82;5.40;;;17.50;97.10;;;;;;5092416;28;20024;-68
2023/07/22 06:47:37;;;;;;;12.38;5.70;;;17.50;97.30;;;;;;5091614;28;20346;-66
2023/07/22 06:50:04;;;;;;;14.27;5.78;;;17.60;97.10;;;;;;5092585;28;20028;-68
2023/07/22 06:52:30;;;;;;;11.77;5.90;;;17.60;97.00;;;;;;5092182;28;20090;-68
2023/07/22 06:54:56;;;;;;;12.55;6.07;;;17.70;97.00;;;;;;5092064;28;20042;-69
2023/07/22 06:57:22;;;;;;;10.70;5.57;;;17.50;96.70;;;;;;5092057;28;20028;-69
2023/07/22 06:59:47;;;;;;;14.52;6.55;;;17.70;96.70;;;;;;5092789;28;20024;-70
2023/07/22 07:02:13;;;;;;;14.43;6.18;;;17.80;96.50;;;;;;5092330;28;20587;-70
2023/07/22 07:04:39;;;;;;;11.65;6.15;;;17.80;96.60;;;;;;5091843;28;20040;-69
2023/07/22 07:07:04;;;;;;;11.25;6.05;;;18.00;96.50;;;;;;5091877;28;20028;-70
2023/07/22 07:09:30;;;;;;;9.82;5.47;;;17.90;96.40;;;;;;5092055;28;20538;-69
2023/07/22 07:11:58;;;;;;;14.68;5.88;;;17.90;96.20;;;;;;5091706;28;20032;-69
2023/07/22 07:14:24;;;;;;;11.98;6.05;;;17.90;96.30;;;;;;5092118;28;20038;-69
2023/07/22 07:16:50;;;;;;;11.90;5.95;;;18.10;96.30;;;;;;5091813;28;20020;-69
2023/07/22 07:19:16;;;;;;;11.70;5.45;;;18.20;96.00;;;;;;5092991;28;20059;-72
2023/07/22 07:21:41;;;;;;;13.15;6.00;;;18.20;95.90;;;;;;5091563;28;20165;-71
2023/07/22 07:24:07;;;;;;;12.50;6.10;;;18.10;95.80;;;;;;5091460;28;20056;-69
2023/07/22 07:26:33;;;;;;;9.95;5.50;;;18.10;96.00;;;;;;5090703;28;20082;-69
2023/07/22 07:28:58;;;;;;;11.23;5.93;;;18.30;96.00;;;;;;5091349;28;20032;-69
2023/07/22 07:31:24;;;;;;;11.35;6.00;;;18.30;95.70;;;;;;5092186;28;20024;-69
2023/07/22 07:33:51;;;;;;;15.15;6.63;;;18.40;95.60;;;;;;5090741;28;20035;-70
2023/07/22 07:36:16;;;;;;;12.10;6.03;;;18.40;95.50;;;;;;5090202;28;20036;-72
2023/07/22 07:38:42;;;;;;;14.05;5.72;;;18.40;95.40;;;;;;5091689;28;20119;-70
2023/07/22 07:41:11;;;;;;;14.60;6.28;;;18.30;95.40;;;;;;5091193;28;20513;-71
2023/07/22 07:43:37;;;;;;;8.90;5.28;;;18.30;95.20;;;;;;5090387;28;20187;-69
2023/07/22 07:46:21;;;;;;;12.25;5.53;;;18.40;95.40;;;;;;5090809;28;20029;-70
2023/07/22 07:48:50;;;;;;;13.38;6.05;;;18.40;95.10;;;;;;5091387;28;20032;-72
2023/07/22 07:51:17;;;;;;;14.27;5.70;;;18.30;95.20;;;;;;5090063;28;20086;-69
2023/07/22 07:53:44;;;;;;;10.20;5.63;;;18.30;94.90;;;;;;5091329;28;20027;-71
2023/07/22 07:56:11;;;;;;;10.00;5.80;;;18.30;95.10;;;;;;5081889;28;20021;-70
2023/07/22 07:58:38;;;;;;;10.20;5.88;;;18.60;95.00;;;;;;5049278;28;20347;-71
2023/07/22 08:01:04;;;;;;;9.88;5.80;;;18.70;94.70;;;;;;5049650;28;20029;-68
2023/07/22 08:03:30;;;;;;;10.45;5.88;;;18.60;94.60;;;;;;5050699;28;20033;-69
2023/07/22 08:05:56;;;;;;;11.98;5.07;;;18.70;94.50;;;;;;5050951;28;20035;-70
2023/07/22 08:08:22;;;;;;;9.68;5.60;;;18.80;94.50;;;;;;5050936;28;20017;-70
2023/07/22 08:10:57;;;;;;;13.27;5.55;;;18.90;94.50;;;;;;5050430;28;20370;-70
2023/07/22 08:13:22;;;;;;;9.35;5.10;;;19.00;94.40;;;;;;5050603;28;20037;-71
2023/07/22 08:15:48;;;;;;;11.57;5.45;;;19.20;94.30;;;;;;5050560;28;20029;-71
2023/07/22 08:18:14;;;;;;;10.63;5.38;;;19.10;93.90;;;;;;5050629;28;20422;-71
2023/07/22 08:20:39;;;;;;;13.65;6.05;;;19.20;93.90;;;;;;5050881;28;20060;-70
2023/07/22 08:23:05;;;;;;;10.23;5.15;;;19.20;93.80;;;;;;5050305;28;20054;-70
2023/07/22 08:25:31;;;;;;;10.60;6.30;;;19.30;93.80;;;;;;5050357;28;20057;-72
2023/07/22 08:27:57;;;;;;;19.65;10.35;;;19.40;93.70;;;;;;5050388;28;20455;-69
2023/07/22 08:30:22;;;;;;;11.93;6.40;;;19.40;93.60;;;;;;5050401;28;20032;-70
2023/07/22 08:32:48;;;;;;;8.93;5.68;;;19.40;93.50;;;;;;5050184;28;20058;-71
2023/07/22 08:35:17;;;;;;;8.55;4.78;;;19.60;93.70;;;;;;5050410;28;20393;-69
2023/07/22 08:37:42;;;;;;;10.82;5.15;;;19.90;93.20;;;;;;5050031;28;20040;-71
2023/07/22 08:40:08;;;;;;;15.98;5.75;;;19.90;93.00;;;;;;5050048;28;20067;-70
2023/07/22 08:42:36;;;;;;;10.20;5.72;;;19.70;92.80;;;;;;5048962;28;20059;-68
2023/07/22 08:45:03;;;;;;;9.18;5.32;;;19.90;92.40;;;;;;5048898;28;20332;-67
2023/07/22 08:47:30;;;;;;;11.35;5.38;;;20.30;93.00;;;;;;5050945;28;20366;-69
2023/07/22 08:49:59;;;;;;;9.98;5.00;;;20.70;92.30;;;;;;5050095;28;20061;-68
2023/07/22 08:52:25;;;;;;;11.38;5.32;;;20.90;91.50;;;;;;5050295;28;20033;-68
2023/07/22 08:54:52;;;;;;;9.20;5.32;;;20.90;91.20;;;;;;5049847;28;20086;-67
2023/07/22 08:57:20;;;;;;;10.32;5.15;;;21.00;91.30;;;;;;5049388;28;20044;-67
2023/07/22 08:59:46;;;;;;;14.02;7.82;;;21.10;91.10;;;;;;5050737;28;20021;-69
2023/07/22 09:02:15;;;;;;;16.58;9.27;;;21.10;90.50;;;;;;5049797;28;20030;-68
2023/07/22 09:04:42;;;;;;;16.52;10.48;;;21.00;90.70;;;;;;5049225;28;20425;-68
2023/07/22 09:07:11;;;;;;;13.98;7.57;;;21.10;90.40;;;;;;5048868;28;20499;-69
2023/07/22 09:09:37;;;;;;;11.32;7.15;;;20.90;90.70;;;;;;5049863;28;20048;-69
2023/07/22 09:12:03;;;;;;;14.82;7.65;;;20.90;90.90;;;;;;5049741;28;20025;-69
2023/07/22 09:14:31;;;;;;;14.13;7.32;;;20.90;90.70;;;;;;5049064;28;20108;-68
2023/07/22 09:16:58;;;;;;;16.52;7.30;;;20.80;90.80;;;;;;5049734;28;20021;-69
2023/07/22 09:19:24;;;;;;;12.82;7.43;;;21.00;90.90;;;;;;5050012;28;20387;-68
2023/07/22 09:21:49;;;;;;;16.63;7.13;;;21.10;90.70;;;;;;5048633;28;20033;-70
2023/07/22 09:24:25;;;;;;;13.77;6.78;;;21.00;90.30;;;;;;5049669;28;20025;-69
2023/07/22 09:26:51;;;;;;;13.77;7.60;;;21.10;90.50;;;;;;5049567;28;20018;-67
2023/07/22 09:29:18;;;;;;;13.07;7.50;;;21.10;90.10;;;;;;5050093;28;20303;-70
2023/07/22 09:31:52;;;;;;;15.32;7.20;;;21.00;90.10;;;;;;5049601;28;20544;-67
2023/07/22 09:34:18;;;;;;;13.68;6.80;;;21.20;89.80;;;;;;5049373;28;20489;-67
2023/07/22 09:36:51;;;;;;;12.35;6.65;;;21.40;89.70;;;;;;5049857;28;20145;-67
2023/07/22 09:39:16;;;;;;;11.75;6.03;;;21.50;88.30;;;;;;5049539;28;20451;-69
2023/07/22 09:41:42;;;;;;;10.30;5.82;;;21.20;89.00;;;;;;5049897;28;20151;-66
2023/07/22 09:44:10;;;;;;;15.52;7.65;;;21.40;88.50;;;;;;5049355;28;20447;-66
2023/07/22 09:46:36;;;;;;;10.20;6.18;;;21.70;88.80;;;;;;5049431;28;20033;-67
2023/07/22 09:49:08;;;;;;;13.38;6.90;;;21.80;87.70;;;;;;5049457;28;20036;-67
2023/07/22 09:51:35;;;;;;;15.00;7.00;;;22.00;88.40;;;;;;5049611;28;20029;-68
2023/07/22 09:54:03;;;;;;;11.10;6.45;;;21.80;86.10;;;;;;5049285;28;20048;-68
2023/07/22 09:56:28;;;;;;;10.52;7.03;;;21.80;87.30;;;;;;5048684;28;20025;-67
2023/07/22 09:58:54;;;;;;;11.65;6.28;;;21.70;87.20;;;;;;5049460;28;20514;-68
2023/07/22 10:01:24;;;;;;;12.27;6.55;;;21.60;87.90;;;;;;5048863;28;20029;-68
2023/07/22 10:03:56;;;;;;;13.82;6.70;;;21.80;87.30;;;;;;5050310;28;20071;-66
2023/07/22 10:06:28;;;;;;;10.73;5.70;;;21.60;87.10;;;;;;5050435;28;20025;-68
2023/07/22 10:08:56;;;;;;;8.50;5.03;;;21.60;86.50;;;;;;5051230;28;20029;-68
2023/07/22 10:11:25;;;;;;;13.05;6.75;;;21.60;85.50;;;;;;5054180;28;20018;-69
2023/07/22 10:13:53;;;;;;;11.40;5.70;;;21.70;85.40;;;;;;5052354;28;20112;-68
2023/07/22 10:16:18;;;;;;;8.45;5.28;;;21.80;85.20;;;;;;5052283;28;20037;-68
2023/07/22 10:18:46;;;;;;;7.35;4.60;;;21.90;85.00;;;;;;5053784;28;20460;-68
2023/07/22 10:21:13;;;;;;;7.70;4.07;;;21.60;84.80;;;;;;5053548;28;20359;-68
2023/07/22 10:23:39;;;;;;;7.72;3.95;;;21.40;84.00;;;;;;5054131;28;20040;-69
2023/07/22 10:26:06;;;;;;;9.27;5.43;;;21.40;84.70;;;;;;5053652;28;20037;-68
2023/07/22 10:28:32;;;;;;;4.95;3.53;;;21.50;85.10;;;;;;5053648;28;20112;-68
2023/07/22 10:30:58;;;;;;;5.43;3.63;;;21.50;84.90;;;;;;5052064;28;20527;-68
2023/07/22 10:33:25;;;;;;;8.43;3.95;;;21.60;84.00;;;;;;5052042;28;20470;-69
2023/07/22 10:36:07;;;;;;;7.43;4.33;;;21.70;84.30;;;;;;5053303;28;20039;-69
2023/07/22 10:38:35;;;;;;;7.07;4.78;;;21.60;83.90;;;;;;5054041;28;20238;-67
2023/07/22 10:41:00;;;;;;;7.90;4.22;;;21.70;84.90;;;;;;5053276;28;20040;-67
2023/07/22 10:43:27;;;;;;;8.50;4.30;;;21.80;85.80;;;;;;5052933;28;20041;-66
2023/07/22 10:45:55;;;;;;;8.63;4.13;;;21.70;85.10;;;;;;5051941;28;20136;-68
2023/07/22 10:48:29;;;;;;;8.80;4.35;;;21.60;86.80;;;;;;5052798;28;20802;-68
2023/07/22 10:51:04;;;;;;;8.98;4.38;;;21.40;90.20;;;;;;5053143;28;20029;-68
2023/07/22 10:53:30;;;;;;;11.10;5.13;;;21.20;90.70;;;;;;5053294;28;20036;-74
2023/07/22 10:56:18;;;;;;;8.43;5.32;;;21.00;91.10;;;;;;5052857;28;20087;-70
2023/07/22 10:58:46;;;;;;;;;;;21.20;91.30;;;;;;5053524;28;20399;-71
2023/07/22 11:01:30;;;;;;;8.32;4.70;;;21.30;92.40;;;;;;5052530;28;19996;-69
2023/07/22 11:04:30;;;;;;;9.65;4.82;;;21.40;91.10;;;;;;5053018;28;20037;-69
2023/07/22 11:06:57;;;;;;;7.93;4.97;;;21.60;91.20;;;;;;5052870;28;20033;-69
2023/07/22 11:09:29;;;;;;;9.13;4.70;;;21.70;91.60;;;;;;5053207;28;20037;-70
2023/07/22 11:12:02;;;;;;;6.30;4.50;;;21.90;91.60;;;;;;5052557;28;20056;-70
2023/07/22 11:14:30;;;;;;;7.68;4.75;;;22.00;91.20;;;;;;5052875;28;20032;-69
2023/07/22 11:17:00;;;;;;;15.57;8.85;;;21.90;90.60;;;;;;5052361;28;20029;-70
2023/07/22 11:19:26;;;;;;;7.88;4.63;;;21.80;90.30;;;;;;5052134;28;20033;-70
2023/07/22 11:21:53;;;;;;;8.45;4.35;;;21.50;89.90;;;;;;5052755;28;20025;-69
2023/07/22 11:24:20;;;;;;;5.60;4.18;;;21.40;90.30;;;;;;5051374;28;20033;-70
2023/07/22 11:26:47;;;;;;;7.32;4.65;;;21.30;90.90;;;;;;5053332;28;20024;-70
2023/07/22 11:29:14;;;;;;;6.63;4.60;;;21.40;90.80;;;;;;5051510;28;20055;-70
2023/07/22 11:31:42;;;;;;;13.50;4.20;;;21.40;90.60;;;;;;5051746;28;20051;-68
2023/07/22 11:34:17;;;;;;;7.13;3.67;;;21.20;90.20;;;;;;5052270;28;20084;-70
2023/07/22 11:36:44;;;;;;;8.70;3.75;;;21.20;89.70;;;;;;5051358;28;20108;-70
2023/07/22 11:39:15;;;;;;;7.68;3.30;;;21.20;89.40;;;;;;5052133;28;20115;-71
2023/07/22 11:41:41;;;;;;;10.07;4.40;;;21.20;89.60;;;;;;5052962;28;20029;-72
2023/07/22 11:44:09;;;;;;;6.25;3.70;;;21.00;89.30;;;;;;5052486;28;20128;-70
2023/07/22 11:46:46;;;;;;;7.15;3.65;;;21.10;90.00;;;;;;5051969;28;20047;-71
2023/07/22 11:49:11;;;;;;;7.80;4.07;;;21.20;88.90;;;;;;5052244;28;20129;-68
2023/07/22 11:51:42;;;;;;;11.30;6.28;;;21.10;89.00;;;;;;5052230;28;20132;-70
2023/07/22 11:54:08;;;;;;;10.20;5.82;;;21.20;89.50;;;;;;5051780;28;20040;-70
2023/07/22 11:56:34;;;;;;;6.50;4.28;;;21.20;88.80;;;;;;5052288;28;20033;-70
2023/07/22 11:58:59;;;;;;;9.10;4.95;;;21.20;87.90;;;;;;5051730;28;20025;-70
2023/07/22 12:01:32;;;;;;;5.88;3.88;;;21.20;88.10;;;;;;5051622;28;20039;-70
2023/07/22 12:03:58;;;;;;;8.75;4.45;;;21.20;87.60;;;;;;5051854;28;20078;-70
2023/07/22 12:06:27;;;;;;;9.85;4.25;;;21.10;87.90;;;;;;5051972;28;20070;-71
2023/07/22 12:08:53;;;;;;;6.88;4.57;;;21.00;88.20;;;;;;5051505;28;20032;-68
2023/07/22 12:11:23;;;;;;;7.18;4.28;;;20.90;88.50;;;;;;5052342;28;20036;-69
2023/07/22 12:14:13;;;;;;;8.65;4.47;;;20.80;88.90;;;;;;5051487;28;20060;-69
2023/07/22 12:16:42;;;;;;;12.07;4.75;;;21.00;89.50;;;;;;5051224;28;20090;-69
2023/07/22 12:19:09;;;;;;;7.43;4.50;;;20.90;89.30;;;;;;5051266;28;20043;-68
2023/07/22 12:21:35;;;;;;;8.43;5.15;;;21.00;89.70;;;;;;5051350;28;20025;-70
2023/07/22 12:24:01;;;;;;;7.47;5.38;;;21.00;89.50;;;;;;5051663;28;20128;-71
2023/07/22 12:26:27;;;;;;;7.72;4.68;;;21.20;89.60;;;;;;5051669;28;20056;-74
2023/07/22 12:28:53;;;;;;;7.65;4.35;;;21.20;89.30;;;;;;5050212;28;20057;-74
2023/07/22 12:31:19;;;;;;;6.60;4.45;;;21.20;89.50;;;;;;5050011;28;20096;-70
2023/07/22 12:33:45;;;;;;;9.15;4.72;;;21.20;88.40;;;;;;5051015;28;20025;-75
2023/07/22 12:36:11;;;;;;;9.52;4.60;;;21.30;87.50;;;;;;5049921;28;20489;-74
2023/07/22 12:38:37;;;;;;;61.70;40.08;;;21.50;87.40;;;;;;5051520;28;20037;-68